createdAt,value
2019-04-05T00:00:34.982Z,26.53
2019-04-05T00:03:02.254Z,30.57
2019-04-05T00:05:29.505Z,24.37
2019-04-05T00:07:56.761Z,25.77
2019-04-05T00:10:24.036Z,28.03
2019-04-05T00:12:51.533Z,28.27
2019-04-05T00:15:18.801Z,23.97
2019-04-05T00:17:46.058Z,30.73
2019-04-05T00:20:14.846Z,26.90
2019-04-05T00:22:42.350Z,30.27
2019-04-05T00:25:09.865Z,23.97
2019-04-05T00:27:37.454Z,26.50
2019-04-05T00:30:06.497Z,24.57
2019-04-05T00:32:33.754Z,26.00
2019-04-05T00:35:01.283Z,24.07
2019-04-05T00:37:28.535Z,28.30
2019-04-05T00:39:55.811Z,22.10
2019-04-05T00:42:23.319Z,22.63
2019-04-05T00:44:50.600Z,26.40
2019-04-05T00:47:17.846Z,24.13
2019-04-05T00:49:45.113Z,28.00
2019-04-05T00:52:12.378Z,25.10
2019-04-05T00:54:39.655Z,25.73
2019-04-05T00:57:06.906Z,23.90
2019-04-05T00:59:34.158Z,22.40
2019-04-05T01:02:01.433Z,22.57
2019-04-05T01:04:28.678Z,24.73
2019-04-05T01:06:55.950Z,21.70
2019-04-05T01:09:23.204Z,24.90
2019-04-05T01:11:50.609Z,22.10
2019-04-05T01:14:18.032Z,19.80
2019-04-05T01:16:45.372Z,21.87
2019-04-05T01:19:13.894Z,21.93
2019-04-05T01:21:42.706Z,23.27
2019-04-05T01:24:10.671Z,22.93
2019-04-05T01:26:39.287Z,24.03
2019-04-05T01:29:06.611Z,21.90
2019-04-05T01:31:33.949Z,21.00
2019-04-05T01:34:01.198Z,22.87
2019-04-05T01:36:28.739Z,22.73
2019-04-05T01:38:55.989Z,24.47
2019-04-05T01:41:23.527Z,29.90
2019-04-05T01:43:50.786Z,30.23
2019-04-05T01:46:18.057Z,29.63
2019-04-05T01:48:45.310Z,25.20
2019-04-05T01:51:12.587Z,27.87
2019-04-05T01:53:40.090Z,27.17
2019-04-05T01:56:07.358Z,27.03
2019-04-05T01:58:34.610Z,28.00
2019-04-05T02:01:01.882Z,26.87
2019-04-05T02:03:29.146Z,27.17
2019-04-05T02:05:56.658Z,26.80
2019-04-05T02:08:23.907Z,24.77
2019-04-05T02:10:51.481Z,24.47
2019-04-05T02:13:18.817Z,21.80
2019-04-05T02:15:46.142Z,24.40
2019-04-05T02:18:13.717Z,25.27
2019-04-05T02:20:40.965Z,28.07
2019-04-05T02:23:08.234Z,27.67
2019-04-05T02:25:35.558Z,28.33
2019-04-05T02:28:02.830Z,29.47
2019-04-05T02:30:30.087Z,24.43
2019-04-05T02:32:57.438Z,27.67
2019-04-05T02:35:25.028Z,23.27
2019-04-05T02:37:52.617Z,27.50
2019-04-05T02:40:21.412Z,25.20
2019-04-05T02:42:49.923Z,28.77
2019-04-05T02:45:17.691Z,24.20
2019-04-05T02:47:46.502Z,26.23
2019-04-05T02:50:14.717Z,24.10
2019-04-05T02:52:43.528Z,27.67
2019-04-05T02:55:11.145Z,26.83
2019-04-05T02:57:38.490Z,25.87
2019-04-05T03:00:05.802Z,22.10
2019-04-05T03:02:33.650Z,23.67
2019-04-05T03:05:01.064Z,24.13
2019-04-05T03:07:28.668Z,23.77
2019-04-05T03:09:57.390Z,23.80
2019-04-05T03:12:25.016Z,24.67
2019-04-05T03:14:52.460Z,22.40
2019-04-05T03:17:20.978Z,29.60
2019-04-05T03:19:49.482Z,22.80
2019-04-05T03:22:17.075Z,24.17
2019-04-05T03:24:45.888Z,26.47
2019-04-05T03:27:14.678Z,24.10
2019-04-05T03:29:42.418Z,21.67
2019-04-05T03:32:09.678Z,23.87
2019-04-05T03:34:36.939Z,24.60
2019-04-05T03:37:04.202Z,23.23
2019-04-05T03:39:31.706Z,23.60
2019-04-05T03:41:59.038Z,23.80
2019-04-05T03:44:26.922Z,17.47
2019-04-05T03:46:57.106Z,20.20
2019-04-05T03:49:23.244Z,22.77
2019-04-05T03:51:50.555Z,22.03
2019-04-05T03:54:17.830Z,18.93
2019-04-05T03:56:45.080Z,23.37
2019-04-05T03:59:12.361Z,20.60
2019-04-05T04:01:39.606Z,26.07
2019-04-05T04:04:06.955Z,25.10
2019-04-05T04:06:34.200Z,23.77
2019-04-05T04:09:01.486Z,29.20
2019-04-05T04:11:29.400Z,27.27
2019-04-05T04:13:56.750Z,29.20
2019-04-05T04:16:24.330Z,29.60
2019-04-05T04:18:51.674Z,26.80
2019-04-05T04:21:26.205Z,32.53
2019-04-05T04:23:54.090Z,32.43
2019-04-05T04:26:21.680Z,31.00
2019-04-05T04:28:48.935Z,28.77
2019-04-05T04:31:16.270Z,32.17
2019-04-05T04:33:43.536Z,29.53
2019-04-05T04:36:13.107Z,33.47
2019-04-05T04:38:39.930Z,30.30
2019-04-05T04:41:07.538Z,33.87
2019-04-05T04:43:34.962Z,32.40
2019-04-05T04:46:02.497Z,31.10
2019-04-05T04:48:29.825Z,37.60
2019-04-05T04:50:57.906Z,36.30
2019-04-05T04:53:25.510Z,37.60
2019-04-05T04:55:52.855Z,33.80
2019-04-05T04:58:20.102Z,35.07
2019-04-05T05:00:47.379Z,32.80
2019-04-05T05:03:14.703Z,33.27
2019-04-05T05:05:42.124Z,34.30
2019-04-05T05:08:09.370Z,32.83
2019-04-05T05:10:36.713Z,34.20
2019-04-05T05:13:03.971Z,36.60
2019-04-05T05:15:31.213Z,36.67
2019-04-05T05:17:59.181Z,33.13
2019-04-05T05:20:26.598Z,34.70
2019-04-05T05:22:53.941Z,29.70
2019-04-05T05:25:21.369Z,28.97
2019-04-05T05:27:49.052Z,37.20
2019-04-05T05:30:16.470Z,30.37
2019-04-05T05:32:43.743Z,36.30
2019-04-05T05:35:11.167Z,32.03
2019-04-05T05:37:38.505Z,32.43
2019-04-05T05:40:06.825Z,38.33
2019-04-05T05:42:34.093Z,31.60
2019-04-05T05:45:01.352Z,34.90
2019-04-05T05:47:28.625Z,28.37
2019-04-05T05:49:55.875Z,26.70
2019-04-05T05:52:23.867Z,21.87
2019-04-05T05:54:51.373Z,24.37
2019-04-05T05:57:18.843Z,19.17
2019-04-05T05:59:46.169Z,21.23
2019-04-05T06:02:13.731Z,21.50
2019-04-05T06:04:40.985Z,20.20
2019-04-05T06:07:08.258Z,21.00
2019-04-05T06:09:35.512Z,20.33
2019-04-05T06:12:02.785Z,19.40
2019-04-05T06:14:30.102Z,18.67
2019-04-05T06:16:57.353Z,18.70
2019-04-05T06:19:24.631Z,26.70
2019-04-05T06:21:52.766Z,21.37
2019-04-05T06:24:20.041Z,24.43
2019-04-05T06:26:47.288Z,21.77
2019-04-05T06:29:14.713Z,26.27
2019-04-05T06:31:41.980Z,28.50
2019-04-05T06:34:09.327Z,24.53
2019-04-05T06:36:36.580Z,23.30
2019-04-05T06:39:05.882Z,26.20
2019-04-05T06:41:33.134Z,22.43
2019-04-05T06:44:00.674Z,24.03
2019-04-05T06:46:29.686Z,25.83
2019-04-05T06:48:57.390Z,22.20
2019-04-05T06:51:24.641Z,24.37
2019-04-05T06:53:51.914Z,26.60
2019-04-05T06:56:19.165Z,21.90
2019-04-05T06:58:47.110Z,25.00
2019-04-05T07:01:14.584Z,26.80
2019-04-05T07:03:41.853Z,22.53
2019-04-05T07:06:09.106Z,25.80
2019-04-05T07:08:36.373Z,27.93
2019-04-05T07:11:03.634Z,27.00
2019-04-05T07:13:30.910Z,22.23
2019-04-05T07:15:58.432Z,24.10
2019-04-05T07:18:34.062Z,27.03
2019-04-05T07:20:57.657Z,22.93
2019-04-05T07:23:23.650Z,23.80
2019-04-05T07:25:50.986Z,22.10
2019-04-05T07:28:18.239Z,21.83
2019-04-05T07:30:45.509Z,22.60
2019-04-05T07:33:12.762Z,25.60
2019-04-05T07:35:40.169Z,34.90
2019-04-05T07:38:09.639Z,29.20
2019-04-05T07:40:36.409Z,32.00
2019-04-05T07:43:03.668Z,31.70
2019-04-05T07:45:31.186Z,24.10
2019-04-05T07:47:58.442Z,21.87
2019-04-05T07:50:25.963Z,20.83
2019-04-05T07:52:53.279Z,24.77
2019-04-05T07:55:20.559Z,23.43
2019-04-05T07:57:47.811Z,23.50
2019-04-05T08:00:32.867Z,23.20
2019-04-05T08:03:00.370Z,22.33
2019-04-05T08:05:27.642Z,25.73
2019-04-05T08:07:54.973Z,22.40
2019-04-05T08:10:22.452Z,26.57
2019-04-05T08:12:50.373Z,20.73
2019-04-05T08:15:17.712Z,21.80
2019-04-05T08:17:44.968Z,20.70
2019-04-05T08:20:12.669Z,20.73
2019-04-05T08:22:39.930Z,20.73
2019-04-05T08:25:07.337Z,20.90
2019-04-05T08:27:34.664Z,19.00
2019-04-05T08:30:01.913Z,19.23
2019-04-05T08:32:29.166Z,20.43
2019-04-05T08:34:56.443Z,19.60
2019-04-05T08:37:23.735Z,18.03
2019-04-05T08:39:51.066Z,21.63
2019-04-05T08:42:18.720Z,19.53
2019-04-05T08:44:46.015Z,19.20
2019-04-05T08:47:13.319Z,21.60
2019-04-05T08:49:40.553Z,19.30
2019-04-05T08:52:08.102Z,19.63
2019-04-05T08:54:36.922Z,20.93
2019-04-05T08:57:04.551Z,25.97
2019-04-05T08:59:32.144Z,20.43
2019-04-05T09:01:59.392Z,19.83
2019-04-05T09:04:26.669Z,18.77
2019-04-05T09:06:53.923Z,17.70
2019-04-05T09:09:21.193Z,22.33
2019-04-05T09:11:48.505Z,17.30
2019-04-05T09:14:15.838Z,18.50
2019-04-05T09:16:43.350Z,17.67
2019-04-05T09:19:22.785Z,13.93
2019-04-05T09:21:40.688Z,18.43
2019-04-05T09:24:08.514Z,15.80
2019-04-05T09:26:35.770Z,17.27
2019-04-05T09:29:03.039Z,17.27
2019-04-05T09:31:30.289Z,25.50
2019-04-05T09:33:57.601Z,20.80
2019-04-05T09:36:24.893Z,23.70
2019-04-05T09:38:52.161Z,23.53
2019-04-05T09:41:19.414Z,26.63
2019-04-05T09:43:46.673Z,25.73
2019-04-05T09:46:13.938Z,26.63
2019-04-05T09:48:41.463Z,22.83
2019-04-05T09:51:08.734Z,20.97
2019-04-05T09:53:36.063Z,23.57
2019-04-05T09:56:03.659Z,22.70
2019-04-05T09:58:30.907Z,29.33
2019-04-05T10:00:58.211Z,22.70
2019-04-05T10:03:25.454Z,24.77
2019-04-05T10:05:52.729Z,28.17
2019-04-05T10:08:20.033Z,22.57
2019-04-05T10:10:47.643Z,22.13
2019-04-05T10:13:14.887Z,27.77
2019-04-05T10:15:42.159Z,21.37
2019-04-05T10:18:09.490Z,22.27
2019-04-05T10:20:38.958Z,31.10
2019-04-05T10:23:05.745Z,26.40
2019-04-05T10:25:33.019Z,27.43
2019-04-05T10:28:00.271Z,25.20
2019-04-05T10:30:27.609Z,27.07
2019-04-05T10:32:54.929Z,22.53
2019-04-05T10:35:22.232Z,21.23
2019-04-05T10:37:49.565Z,24.83
2019-04-05T10:40:17.264Z,24.60
2019-04-05T10:42:44.510Z,26.13
2019-04-05T10:45:14.314Z,22.03
2019-04-05T10:47:41.571Z,42.57
2019-04-05T10:50:10.135Z,29.30
2019-04-05T10:52:37.444Z,25.40
2019-04-05T10:55:05.282Z,27.10
2019-04-05T10:57:32.774Z,28.47
2019-04-05T11:00:00.049Z,26.83
2019-04-05T11:02:27.298Z,26.67
2019-04-05T11:04:54.567Z,23.80
2019-04-05T11:07:21.829Z,34.20
2019-04-05T11:09:49.094Z,27.00
2019-04-05T11:12:16.368Z,22.07
2019-04-05T11:14:43.629Z,26.40
2019-04-05T11:17:10.887Z,23.07
2019-04-05T11:19:38.474Z,24.23
2019-04-05T11:22:05.726Z,29.43
2019-04-05T11:24:32.994Z,27.13
2019-04-05T11:27:00.251Z,30.47
2019-04-05T11:29:27.522Z,27.33
2019-04-05T11:31:57.435Z,25.70
2019-04-05T11:34:23.853Z,33.47
2019-04-05T11:36:51.478Z,26.97
2019-04-05T11:39:19.005Z,26.00
2019-04-05T11:41:47.319Z,31.33
2019-04-05T11:44:14.589Z,31.63
2019-04-05T11:46:42.058Z,27.63
2019-04-05T11:49:09.333Z,22.60
2019-04-05T11:51:37.010Z,27.07
2019-04-05T11:54:04.333Z,25.33
2019-04-05T11:56:31.615Z,26.87
2019-04-05T11:58:59.247Z,26.60
2019-04-05T12:01:36.895Z,23.10
2019-04-05T12:04:04.202Z,27.97
2019-04-05T12:06:31.466Z,26.33
2019-04-05T12:08:59.308Z,22.77
2019-04-05T12:11:27.722Z,25.43
2019-04-05T12:13:54.974Z,29.30
2019-04-05T12:16:22.256Z,28.77
2019-04-05T12:18:49.509Z,24.93
2019-04-05T12:21:16.878Z,28.90
2019-04-05T12:23:44.142Z,26.60
2019-04-05T12:26:11.420Z,23.70
2019-04-05T12:28:38.713Z,29.60
2019-04-05T12:31:06.041Z,23.37
2019-04-05T12:33:33.290Z,25.17
2019-04-05T12:36:00.565Z,28.43
2019-04-05T12:38:32.452Z,30.63
2019-04-05T12:41:00.569Z,29.93
2019-04-05T12:43:27.823Z,22.00
2019-04-05T12:45:55.096Z,31.33
2019-04-05T12:48:22.722Z,31.47
2019-04-05T12:51:00.498Z,30.40
2019-04-05T12:53:19.701Z,24.70
2019-04-05T12:55:46.980Z,29.57
2019-04-05T12:58:14.227Z,30.37
2019-04-05T13:00:41.474Z,34.80
2019-04-05T13:03:08.802Z,25.50
2019-04-05T13:05:36.053Z,28.97
2019-04-05T13:08:03.329Z,29.77
2019-04-05T13:10:30.840Z,27.27
2019-04-05T13:12:58.437Z,28.30
2019-04-05T13:15:25.821Z,28.87
2019-04-05T13:17:53.093Z,27.10
2019-04-05T13:20:20.357Z,29.70
2019-04-05T13:22:47.699Z,29.57
2019-04-05T13:25:14.953Z,27.83
2019-04-05T13:27:42.546Z,28.63
2019-04-05T13:30:10.170Z,28.70
2019-04-05T13:32:37.712Z,31.67
2019-04-05T13:35:06.031Z,31.30
2019-04-05T13:37:33.302Z,28.67
2019-04-05T13:40:00.631Z,30.87
2019-04-05T13:42:31.214Z,29.47
2019-04-05T13:44:56.888Z,26.30
2019-04-05T13:47:24.410Z,27.73
2019-04-05T13:49:51.665Z,31.67
2019-04-05T13:52:18.941Z,35.50
2019-04-05T13:54:46.194Z,38.13
2019-04-05T13:57:13.530Z,30.90
2019-04-05T13:59:40.778Z,22.60
2019-04-05T14:02:08.031Z,29.70
2019-04-05T14:04:35.551Z,31.57
2019-04-05T14:07:03.846Z,28.70
2019-04-05T14:09:31.728Z,26.87
2019-04-05T14:11:59.086Z,31.20
2019-04-05T14:14:28.404Z,33.03
2019-04-05T14:16:55.582Z,31.13
2019-04-05T14:19:22.862Z,25.80
2019-04-05T14:21:52.791Z,36.13
2019-04-05T14:24:19.398Z,29.77
2019-04-05T14:26:46.910Z,31.33
2019-04-05T14:29:14.187Z,35.23
2019-04-05T14:31:41.437Z,30.50
2019-04-05T14:34:08.734Z,33.20
2019-04-05T14:36:36.048Z,35.00
2019-04-05T14:39:04.981Z,33.33
2019-04-05T14:41:32.298Z,30.53
2019-04-05T14:43:59.577Z,33.37
2019-04-05T14:46:29.030Z,31.83
2019-04-05T14:48:55.974Z,36.43
2019-04-05T14:51:23.298Z,31.67
2019-04-05T14:53:50.577Z,37.67
2019-04-05T14:56:18.669Z,38.20
2019-04-05T14:58:45.943Z,31.83
2019-04-05T15:01:13.440Z,35.87
2019-04-05T15:03:40.985Z,31.60
2019-04-05T15:06:08.329Z,31.97
2019-04-05T15:08:35.593Z,29.70
2019-04-05T15:11:02.952Z,31.67
2019-04-05T15:13:30.203Z,33.87
2019-04-05T15:15:57.478Z,28.10
2019-04-05T15:18:25.253Z,31.17
2019-04-05T15:20:52.583Z,30.00
2019-04-05T15:23:19.857Z,32.80
2019-04-05T15:25:49.435Z,34.07
2019-04-05T15:28:16.102Z,32.00
2019-04-05T15:30:44.038Z,32.93
2019-04-05T15:33:11.278Z,33.53
2019-04-05T15:35:38.613Z,30.03
2019-04-05T15:38:05.861Z,33.57
2019-04-05T15:40:33.207Z,35.97
2019-04-05T15:43:00.533Z,32.67
2019-04-05T15:45:27.806Z,30.00
2019-04-05T15:47:55.054Z,34.20
2019-04-05T15:50:22.529Z,31.70
2019-04-05T15:52:49.824Z,32.77
2019-04-05T15:55:17.114Z,37.13
2019-04-05T15:57:44.498Z,35.50
2019-04-05T16:00:13.665Z,33.63
2019-04-05T16:02:43.010Z,37.80
2019-04-05T16:05:10.094Z,37.00
2019-04-05T16:07:37.438Z,35.43
2019-04-05T16:10:06.230Z,35.77
2019-04-05T16:12:33.514Z,39.47
2019-04-05T16:15:00.761Z,42.30
2019-04-05T16:17:28.050Z,45.53
2019-04-05T16:19:55.415Z,36.90
2019-04-05T16:22:31.240Z,35.73
2019-04-05T16:24:51.716Z,39.47
2019-04-05T16:27:18.975Z,37.57
2019-04-05T16:29:46.218Z,33.93
2019-04-05T16:32:13.520Z,42.87
2019-04-05T16:34:40.757Z,41.33
2019-04-05T16:37:08.038Z,44.67
2019-04-05T16:39:35.289Z,37.53
2019-04-05T16:42:02.558Z,39.93
2019-04-05T16:44:29.816Z,40.00
2019-04-05T16:46:57.081Z,38.57
2019-04-05T16:49:24.338Z,41.27
2019-04-05T16:51:51.614Z,43.20
2019-04-05T16:54:18.896Z,38.27
2019-04-05T16:56:46.210Z,38.10
2019-04-05T16:59:13.458Z,42.13
2019-04-05T17:01:40.734Z,47.17
2019-04-05T17:04:07.990Z,43.40
2019-04-05T17:06:35.257Z,42.53
2019-04-05T17:09:02.516Z,42.90
2019-04-05T17:11:29.794Z,44.10
2019-04-05T17:13:59.551Z,41.13
2019-04-05T17:16:26.006Z,46.70
2019-04-05T17:18:53.278Z,48.60
2019-04-05T17:21:20.766Z,45.90
2019-04-05T17:23:48.046Z,45.10
2019-04-05T17:26:15.293Z,39.30
2019-04-05T17:28:42.576Z,43.77
2019-04-05T17:31:09.831Z,40.03
2019-04-05T17:33:37.095Z,40.27
2019-04-05T17:36:04.354Z,46.50
2019-04-05T17:38:31.728Z,43.50
2019-04-05T17:40:59.121Z,50.47
2019-04-05T17:43:26.666Z,49.13
2019-04-05T17:45:53.910Z,50.83
2019-04-05T17:48:21.426Z,40.03
2019-04-05T17:50:48.926Z,55.10
2019-04-05T17:53:16.205Z,60.10
2019-04-05T17:55:43.527Z,47.67
2019-04-05T17:58:11.257Z,42.23
2019-04-05T18:00:38.586Z,56.70
2019-04-05T18:03:05.939Z,43.63
2019-04-05T18:05:33.442Z,46.20
2019-04-05T18:08:00.711Z,49.93
2019-04-05T18:10:27.986Z,37.00
2019-04-05T18:12:55.241Z,44.20
2019-04-05T18:15:22.969Z,40.30
2019-04-05T18:17:50.278Z,36.00
2019-04-05T18:20:17.552Z,44.67
2019-04-05T18:22:44.802Z,44.67
2019-04-05T18:25:14.177Z,35.07
2019-04-05T18:27:41.113Z,34.50
2019-04-05T18:30:08.527Z,35.40
2019-04-05T18:32:35.858Z,35.33
2019-04-05T18:35:03.303Z,43.43
2019-04-05T18:37:30.558Z,32.37
2019-04-05T18:39:57.847Z,24.53
2019-04-05T18:42:25.086Z,22.27
2019-04-05T18:44:52.357Z,32.48
2019-04-05T18:47:19.618Z,32.53
2019-04-05T18:49:46.950Z,32.27
2019-04-05T18:52:14.314Z,35.37
2019-04-05T18:54:41.593Z,36.97
2019-04-05T18:57:08.871Z,40.80
2019-04-05T18:59:36.122Z,30.50
2019-04-05T19:02:03.470Z,37.90
2019-04-05T19:04:30.723Z,37.43
2019-04-05T19:06:57.989Z,41.17
2019-04-05T19:09:25.334Z,42.17
2019-04-05T19:11:52.590Z,41.10
2019-04-05T19:14:19.867Z,45.67
2019-04-05T19:16:47.366Z,50.17
2019-04-05T19:19:17.645Z,50.67
2019-04-05T19:21:44.142Z,40.77
2019-04-05T19:24:11.418Z,34.27
2019-04-05T19:26:38.930Z,43.07
2019-04-05T19:29:06.275Z,56.97
2019-04-05T19:48:56.544Z,33.73
2019-04-05T19:51:23.805Z,34.60
2019-04-05T19:54:00.806Z,34.60
2019-04-05T19:56:20.054Z,37.50
2019-04-05T19:58:47.650Z,52.10
2019-04-05T20:01:14.921Z,60.87
2019-04-05T20:03:42.443Z,45.83
2019-04-05T20:06:09.719Z,33.30
2019-04-05T20:08:37.070Z,34.10
2019-04-05T20:11:04.916Z,43.63
2019-04-05T20:13:32.170Z,45.63
2019-04-05T20:15:59.437Z,35.10
2019-04-05T20:18:26.833Z,33.53
2019-04-05T20:20:54.177Z,35.80
2019-04-05T20:23:21.431Z,36.50
2019-04-05T20:25:48.977Z,37.40
2019-04-05T20:28:16.218Z,37.13
2019-04-05T20:30:43.498Z,25.07
2019-04-05T20:33:10.825Z,29.53
2019-04-05T20:35:38.098Z,32.90
2019-04-05T20:38:05.602Z,30.80
2019-04-05T20:40:32.878Z,23.83
2019-04-05T20:43:00.135Z,26.13
2019-04-05T20:45:27.410Z,29.47
2019-04-05T20:47:54.729Z,26.00
2019-04-05T20:50:22.241Z,39.13
2019-04-05T20:52:50.302Z,27.20
2019-04-05T20:55:17.873Z,31.13
2019-04-05T20:57:45.448Z,24.10
2019-04-05T21:00:13.406Z,26.23
2019-04-05T21:02:40.929Z,23.27
2019-04-05T21:05:08.242Z,19.50
2019-04-05T21:07:35.522Z,25.50
2019-04-05T21:10:03.671Z,23.10
2019-04-05T21:12:30.991Z,28.80
2019-04-05T21:14:58.513Z,32.17
2019-04-05T21:17:26.220Z,46.40
2019-04-05T21:19:53.474Z,29.50
2019-04-05T21:22:20.960Z,32.13
2019-04-05T21:24:48.590Z,43.50
2019-04-05T21:27:16.295Z,37.80
2019-04-05T21:29:43.546Z,35.57
2019-04-05T21:32:11.140Z,28.87
2019-04-05T21:34:38.418Z,44.23
2019-04-05T21:37:05.766Z,30.83
2019-04-05T21:39:33.018Z,33.97
2019-04-05T21:42:00.330Z,31.23
2019-04-05T21:44:27.879Z,33.33
2019-04-05T21:46:55.349Z,31.27
2019-04-05T21:49:22.606Z,33.17
2019-04-05T21:51:49.845Z,25.20
2019-04-05T21:54:17.126Z,24.67
2019-04-05T21:56:45.582Z,26.53
2019-04-05T21:59:13.248Z,27.70
2019-04-05T22:01:40.814Z,25.40
2019-04-05T22:04:08.468Z,27.43
2019-04-05T22:06:35.716Z,29.47
2019-04-05T22:09:05.703Z,24.67
2019-04-05T22:11:32.949Z,34.90
2019-04-05T22:14:00.226Z,41.80
2019-04-05T22:16:27.730Z,37.97
2019-04-05T22:18:55.078Z,35.90
2019-04-05T22:21:22.329Z,35.80
2019-04-05T22:23:49.606Z,40.70
2019-04-05T22:26:16.859Z,41.70
2019-04-05T22:28:44.203Z,42.13
2019-04-05T22:31:11.449Z,58.13
2019-04-05T22:33:38.998Z,49.80
2019-04-05T22:36:06.243Z,52.40
2019-04-05T22:38:33.521Z,51.10
2019-04-05T22:41:00.769Z,37.13
2019-04-05T22:43:28.270Z,52.30
2019-04-05T22:45:55.541Z,53.10
2019-04-05T22:48:22.793Z,36.27
2019-04-05T22:50:50.061Z,48.43
2019-04-05T22:53:17.309Z,50.57
2019-04-05T22:55:44.587Z,45.80
2019-04-05T22:58:11.841Z,50.40
2019-04-05T23:00:39.115Z,42.93
2019-04-05T23:03:06.626Z,40.77
2019-04-05T23:05:34.068Z,39.60
2019-04-05T23:08:01.585Z,43.70
2019-04-05T23:10:28.926Z,44.07
2019-04-05T23:12:56.514Z,58.10
2019-04-05T23:15:23.786Z,54.60
2019-04-05T23:17:51.042Z,52.43
2019-04-05T23:20:18.385Z,51.60
2019-04-05T23:22:45.637Z,47.53
2019-04-05T23:25:21.472Z,47.43
2019-04-05T23:27:42.133Z,39.40
2019-04-05T23:30:09.752Z,50.70
2019-04-05T23:32:37.000Z,49.23
2019-04-05T23:35:07.359Z,45.70
2019-04-05T23:37:34.741Z,45.50
2019-04-05T23:40:02.094Z,46.03
2019-04-05T23:42:29.337Z,45.90
2019-04-05T23:44:56.610Z,52.63
2019-04-05T23:47:24.119Z,53.23
2019-04-05T23:49:51.389Z,43.60
2019-04-05T23:52:18.645Z,51.77
2019-04-05T23:54:45.936Z,66.43
2019-04-05T23:57:13.237Z,57.17
2019-04-05T23:59:40.779Z,45.63
